TimeCDT,TemperatureF,Dew PointF,Humidity,Sea Level PressureIn,VisibilityMPH,Wind Direction,Wind SpeedMPH,Gust SpeedMPH,PrecipitationIn,Events,Conditions,WindDirDegrees,DateUTC
12:53 AM,66.9,41.0,39,29.68,10.0,South,13.8,-,N/A,,Clear,190,2011-10-25 05:53:00
1:53 AM,64.9,43.0,45,29.66,10.0,SSW,11.5,20.7,N/A,,Clear,210,2011-10-25 06:53:00
2:53 AM,63.0,43.0,48,29.64,10.0,SSW,11.5,-,N/A,,Clear,210,2011-10-25 07:53:00
3:53 AM,64.0,37.9,38,29.62,10.0,SW,15.0,-,N/A,,Clear,220,2011-10-25 08:53:00
4:53 AM,61.0,36.0,39,29.63,10.0,WSW,11.5,-,N/A,,Clear,240,2011-10-25 09:53:00
5:53 AM,54.0,35.1,49,29.65,10.0,West,10.4,-,N/A,,Clear,260,2011-10-25 10:53:00
6:53 AM,51.1,34.0,52,29.67,10.0,West,10.4,-,N/A,,Clear,270,2011-10-25 11:53:00
7:53 AM,46.9,34.0,61,29.73,10.0,West,10.4,-,N/A,,Clear,280,2011-10-25 12:53:00
8:53 AM,54.0,36.0,51,29.76,10.0,NW,11.5,17.3,N/A,,Clear,310,2011-10-25 13:53:00
9:53 AM,57.9,37.9,47,29.80,10.0,NW,17.3,25.3,N/A,,Clear,320,2011-10-25 14:53:00
10:53 AM,59.0,37.9,46,29.84,10.0,NW,18.4,27.6,N/A,,Clear,320,2011-10-25 15:53:00
11:53 AM,59.0,37.9,46,29.86,10.0,NNW,24.2,29.9,N/A,,Clear,330,2011-10-25 16:53:00
12:53 PM,60.1,39.0,46,29.89,10.0,North,20.7,-,N/A,,Clear,350,2011-10-25 17:53:00
1:53 PM,64.9,39.9,40,29.87,10.0,North,16.1,26.5,N/A,,Clear,350,2011-10-25 18:53:00
2:53 PM,66.9,41.0,39,29.86,10.0,NNW,18.4,25.3,N/A,,Clear,330,2011-10-25 19:53:00
3:53 PM,66.9,41.0,39,29.86,10.0,North,16.1,23.0,N/A,,Clear,360,2011-10-25 20:53:00
4:53 PM,66.9,41.0,39,29.89,10.0,North,16.1,-,N/A,,Clear,350,2011-10-25 21:53:00
5:53 PM,62.1,39.0,43,29.93,10.0,North,16.1,-,N/A,,Clear,350,2011-10-25 22:53:00
6:53 PM,57.9,39.0,49,29.97,10.0,NNE,12.7,-,N/A,,Clear,20,2011-10-25 23:53:00
8:53 PM,53.1,39.0,59,30.03,10.0,North,10.4,-,N/A,,Clear,10,2011-10-26 01:53:00
9:53 PM,52.0,39.0,61,30.04,10.0,North,11.5,-,N/A,,Clear,10,2011-10-26 02:53:00
10:53 PM,52.0,39.0,61,30.05,10.0,North,17.3,-,N/A,,Clear,10,2011-10-26 03:53:00
11:53 PM,51.1,37.9,61,30.07,10.0,North,18.4,-,N/A,,Partly Cloudy,10,2011-10-26 04:53:00